Time;durP1;ratioP1;P1;durP2;ratioP2;P2;SDS_P1;SDS_P2;PMS_P1;PMS_P2;Temp;Humidity;BMP_temperature;BMP_pressure;BME280_temperature;BME280_humidity;BME280_pressure;Samples;Min_cycle;Max_cycle;Signal;HPM_P1;HPM_P2
2023/04/30 00:02:08;;;;;;;11.43;7.45;;;9.90;99.90;;;;;;6242104;22;20026;-74
2023/04/30 00:04:33;;;;;;;9.60;7.35;;;9.90;99.90;;;;;;6243001;23;20438;-73
2023/04/30 00:06:59;;;;;;;8.52;6.55;;;9.90;99.90;;;;;;6243115;23;20008;-74
2023/04/30 00:09:25;;;;;;;10.18;7.70;;;9.90;99.90;;;;;;6242688;22;20462;-74
2023/04/30 00:11:51;;;;;;;7.95;6.72;;;9.90;99.90;;;;;;6241449;23;20028;-74
2023/04/30 00:14:16;;;;;;;12.85;7.60;;;9.80;99.90;;;;;;6242267;23;20018;-74
2023/04/30 00:16:42;;;;;;;11.45;7.32;;;9.80;99.90;;;;;;6242954;23;20000;-73
2023/04/30 00:19:07;;;;;;;11.60;7.55;;;9.80;99.90;;;;;;6242471;23;20004;-74
2023/04/30 00:21:33;;;;;;;9.10;6.55;;;9.80;99.90;;;;;;6242715;23;20004;-74
2023/04/30 00:24:02;;;;;;;9.68;6.63;;;9.70;99.90;;;;;;6243160;23;20382;-74
2023/04/30 00:26:28;;;;;;;10.10;6.68;;;9.70;99.90;;;;;;6242380;22;20011;-74
2023/04/30 00:28:54;;;;;;;10.30;7.20;;;9.70;99.90;;;;;;6242356;23;20004;-74
2023/04/30 00:31:19;;;;;;;7.55;6.75;;;9.70;99.90;;;;;;6242402;22;19997;-74
2023/04/30 00:33:45;;;;;;;10.18;7.53;;;9.70;99.90;;;;;;6242595;23;20016;-74
2023/04/30 00:36:11;;;;;;;7.88;6.65;;;9.60;99.90;;;;;;6242241;23;20030;-74
2023/04/30 00:38:36;;;;;;;7.72;6.75;;;9.60;99.90;;;;;;6243092;22;20343;-74
2023/04/30 00:41:02;;;;;;;8.60;7.13;;;9.60;99.90;;;;;;6242910;23;19996;-74
2023/04/30 00:43:28;;;;;;;9.88;7.13;;;9.60;99.90;;;;;;6241901;22;20011;-74
2023/04/30 00:45:53;;;;;;;11.18;8.13;;;9.50;99.90;;;;;;6242708;23;19996;-74
2023/04/30 00:48:19;;;;;;;9.75;8.00;;;9.50;99.90;;;;;;6242235;23;20046;-74
2023/04/30 00:50:44;;;;;;;9.30;7.43;;;9.50;99.90;;;;;;6242742;22;20079;-74
2023/04/30 00:53:11;;;;;;;11.68;8.38;;;9.50;99.90;;;;;;6242283;23;20071;-74
2023/04/30 00:55:39;;;;;;;9.77;6.90;;;9.40;99.90;;;;;;6242673;22;19996;-74
2023/04/30 00:58:05;;;;;;;8.70;7.30;;;9.50;99.90;;;;;;6242273;22;20004;-73
2023/04/30 01:00:31;;;;;;;7.13;5.97;;;9.40;99.90;;;;;;6241995;23;20445;-74
2023/04/30 01:02:57;;;;;;;11.65;7.50;;;9.40;99.90;;;;;;6242533;23;20000;-74
2023/04/30 01:05:22;;;;;;;8.98;7.28;;;9.40;99.90;;;;;;6242214;23;20012;-73
2023/04/30 01:07:49;;;;;;;8.35;7.47;;;9.40;99.90;;;;;;6242581;23;20448;-74
2023/04/30 01:10:15;;;;;;;9.15;7.07;;;9.30;99.90;;;;;;6240033;23;19996;-73
2023/04/30 01:12:55;;;;;;;10.18;7.70;;;9.30;99.90;;;;;;6240253;23;20000;-74
2023/04/30 01:15:32;;;;;;;8.20;7.05;;;9.30;99.90;;;;;;6241768;22;20000;-74
2023/04/30 01:18:06;;;;;;;9.25;7.38;;;9.30;99.90;;;;;;6242646;22;20000;-74
2023/04/30 01:20:32;;;;;;;10.13;6.35;;;9.30;99.90;;;;;;6242135;22;20330;-74
2023/04/30 01:23:14;;;;;;;9.82;7.05;;;9.20;99.90;;;;;;6242626;23;20011;-74
2023/04/30 01:25:39;;;;;;;10.68;7.78;;;9.20;99.90;;;;;;6242520;23;20000;-74
2023/04/30 01:28:19;;;;;;;10.93;7.45;;;9.20;99.90;;;;;;6241813;23;20099;-74
2023/04/30 01:30:45;;;;;;;8.38;6.82;;;9.20;99.90;;;;;;6242702;22;20043;-74
2023/04/30 01:33:11;;;;;;;10.30;8.10;;;9.20;99.90;;;;;;6241918;22;20012;-74
2023/04/30 01:36:05;;;;;;;9.48;7.63;;;9.20;99.90;;;;;;6245680;22;20000;-73
2023/04/30 01:38:49;;;;;;;9.55;6.63;;;9.10;99.90;;;;;;6247277;23;20015;-74
2023/04/30 01:41:17;;;;;;;9.57;7.93;;;9.10;99.90;;;;;;6242102;22;20023;-74
2023/04/30 01:43:54;;;;;;;7.63;6.53;;;9.00;99.90;;;;;;6241012;23;20004;-74
2023/04/30 01:46:30;;;;;;;9.80;7.25;;;9.00;99.90;;;;;;6242922;22;20004;-73
2023/04/30 01:49:26;;;;;;;8.52;6.70;;;9.00;99.90;;;;;;6247927;22;20028;-74
2023/04/30 01:52:00;;;;;;;9.13;7.53;;;9.00;99.90;;;;;;6217924;23;20423;-74
2023/04/30 01:54:44;;;;;;;10.10;7.10;;;9.00;99.90;;;;;;6241924;22;20418;-74
2023/04/30 01:57:20;;;;;;;9.00;6.65;;;9.00;99.90;;;;;;6240075;23;20008;-74
2023/04/30 01:59:46;;;;;;;8.70;6.80;;;9.00;99.90;;;;;;6242585;22;20087;-74
2023/04/30 02:02:12;;;;;;;9.77;7.22;;;8.90;99.90;;;;;;6241747;22;20004;-74
2023/04/30 02:04:37;;;;;;;8.10;5.75;;;8.90;99.90;;;;;;6242501;23;20004;-74
2023/04/30 02:07:03;;;;;;;10.65;6.72;;;8.90;99.90;;;;;;6240620;23;20004;-74
2023/04/30 02:09:28;;;;;;;10.07;6.25;;;8.90;99.90;;;;;;6240557;23;20005;-73
2023/04/30 02:11:54;;;;;;;10.82;6.32;;;8.90;99.90;;;;;;6241720;23;20000;-73
2023/04/30 02:14:19;;;;;;;9.65;7.03;;;8.90;99.90;;;;;;6240171;23;20004;-73
2023/04/30 02:16:45;;;;;;;8.25;7.20;;;8.80;99.90;;;;;;6241823;23;19997;-74
2023/04/30 02:19:11;;;;;;;13.27;7.05;;;8.80;99.90;;;;;;6241787;23;20000;-74
2023/04/30 02:21:36;;;;;;;9.45;6.80;;;8.80;99.90;;;;;;6243704;22;19997;-74
2023/04/30 02:24:02;;;;;;;11.35;7.32;;;8.80;99.90;;;;;;6244435;23;20067;-73
2023/04/30 02:26:28;;;;;;;12.13;7.20;;;8.80;99.90;;;;;;6243027;23;20083;-73
2023/04/30 02:28:53;;;;;;;12.60;8.27;;;8.80;99.90;;;;;;6244182;23;20004;-74
2023/04/30 02:31:19;;;;;;;10.48;7.80;;;8.80;99.90;;;;;;6243426;23;20066;-74
2023/04/30 02:33:44;;;;;;;8.73;7.70;;;8.70;99.90;;;;;;6243822;23;20008;-74
2023/04/30 02:36:10;;;;;;;8.60;6.53;;;8.70;99.90;;;;;;6243674;23;20371;-74
2023/04/30 02:38:35;;;;;;;12.43;7.65;;;8.70;99.90;;;;;;6244305;22;20000;-74
2023/04/30 02:41:02;;;;;;;10.43;6.85;;;8.70;99.90;;;;;;6243558;23;20138;-73
2023/04/30 02:43:27;;;;;;;8.98;7.60;;;8.70;99.90;;;;;;6243386;22;20000;-74
2023/04/30 02:45:53;;;;;;;8.68;7.53;;;8.60;99.90;;;;;;6243828;23;20004;-74
2023/04/30 02:48:18;;;;;;;9.63;6.75;;;8.60;99.90;;;;;;6241670;23;20010;-74
2023/04/30 02:50:44;;;;;;;7.30;5.95;;;8.60;99.90;;;;;;6242140;23;20079;-73
2023/04/30 02:53:10;;;;;;;10.25;7.97;;;8.60;99.90;;;;;;6243578;23;20510;-74
2023/04/30 02:55:35;;;;;;;9.40;6.78;;;8.60;99.90;;;;;;6243280;22;20330;-74
2023/04/30 02:58:01;;;;;;;13.75;7.82;;;8.60;99.90;;;;;;6243967;23;19996;-74
2023/04/30 03:00:26;;;;;;;8.70;7.10;;;8.50;99.90;;;;;;6243077;23;20079;-74
2023/04/30 03:02:52;;;;;;;9.37;7.47;;;8.50;99.90;;;;;;6244022;23;20008;-74
2023/04/30 03:05:17;;;;;;;8.97;7.20;;;8.50;99.90;;;;;;6243098;23;20007;-74
2023/04/30 03:07:43;;;;;;;11.98;7.57;;;8.50;99.90;;;;;;6243915;23;20091;-74
2023/04/30 03:10:09;;;;;;;11.52;9.35;;;8.50;99.90;;;;;;6242898;23;20004;-74
2023/04/30 03:12:35;;;;;;;9.75;8.35;;;8.50;99.90;;;;;;6243486;22;20026;-73
2023/04/30 03:15:00;;;;;;;13.87;8.20;;;8.50;99.90;;;;;;6242013;23;20425;-73
2023/04/30 03:17:26;;;;;;;8.95;7.82;;;8.50;99.90;;;;;;6243033;23;20142;-74
2023/04/30 03:19:52;;;;;;;13.43;8.07;;;8.40;99.90;;;;;;6243743;22;20003;-74
2023/04/30 03:22:18;;;;;;;9.83;7.40;;;8.40;99.90;;;;;;6243038;23;20023;-73
2023/04/30 03:24:44;;;;;;;10.90;8.27;;;8.40;99.90;;;;;;6243242;22;20003;-74
2023/04/30 03:27:10;;;;;;;12.63;8.23;;;8.40;99.90;;;;;;6241679;23;20087;-74
2023/04/30 03:29:35;;;;;;;10.97;7.77;;;8.40;99.90;;;;;;6243704;23;20034;-74
2023/04/30 03:32:01;;;;;;;13.17;9.07;;;8.30;99.90;;;;;;6242977;23;20476;-74
2023/04/30 03:34:26;;;;;;;9.87;7.77;;;8.30;99.90;;;;;;6240694;23;20441;-74
2023/04/30 03:36:52;;;;;;;12.55;7.88;;;8.30;99.90;;;;;;6239367;23;20008;-73
2023/04/30 03:39:17;;;;;;;12.33;8.27;;;8.30;99.90;;;;;;6240761;23;20004;-74
2023/04/30 03:41:43;;;;;;;14.57;8.93;;;8.30;99.90;;;;;;6241825;23;20338;-74
2023/04/30 03:44:14;;;;;;;13.23;9.83;;;8.30;99.90;;;;;;6241996;23;20290;-74
2023/04/30 03:46:43;;;;;;;11.40;8.77;;;8.30;99.90;;;;;;6243372;22;20024;-74
2023/04/30 03:49:08;;;;;;;13.37;9.03;;;8.20;99.90;;;;;;6243013;22;20087;-74
2023/04/30 03:51:38;;;;;;;9.47;8.20;;;8.20;99.90;;;;;;6243420;23;20028;-73
2023/04/30 03:54:05;;;;;;;12.83;10.13;;;8.20;99.90;;;;;;6242917;22;20353;-73
2023/04/30 03:56:31;;;;;;;10.20;8.70;;;8.30;99.90;;;;;;6243367;22;20011;-74
2023/04/30 03:58:57;;;;;;;16.10;10.03;;;8.20;99.90;;;;;;6243749;22;20007;-73
2023/04/30 04:01:22;;;;;;;13.60;9.17;;;8.20;99.90;;;;;;6244525;23;20005;-74
2023/04/30 04:03:48;;;;;;;15.53;10.63;;;8.20;99.90;;;;;;6244478;23;20454;-76
2023/04/30 04:06:14;;;;;;;12.83;9.50;;;8.20;99.90;;;;;;6242761;23;20092;-76
2023/04/30 04:08:42;;;;;;;11.00;9.23;;;8.20;99.90;;;;;;6242730;23;19996;-74
2023/04/30 04:11:08;;;;;;;12.97;8.10;;;8.10;99.90;;;;;;6242919;22;20050;-73
2023/04/30 04:13:34;;;;;;;13.37;9.73;;;8.10;99.90;;;;;;6242663;22;20003;-73
2023/04/30 04:15:59;;;;;;;12.80;10.93;;;8.10;99.90;;;;;;6243157;23;20004;-74
2023/04/30 04:18:25;;;;;;;14.13;9.80;;;8.10;99.90;;;;;;6242300;23;20000;-73
2023/04/30 04:20:50;;;;;;;15.43;10.87;;;8.10;99.90;;;;;;6242594;23;20005;-77
2023/04/30 04:23:16;;;;;;;13.33;9.97;;;8.10;99.90;;;;;;6242352;23;20004;-74
2023/04/30 04:25:43;;;;;;;15.07;11.13;;;8.10;99.90;;;;;;6242740;23;20011;-74
2023/04/30 04:28:08;;;;;;;14.93;10.43;;;8.10;99.90;;;;;;6242497;22;20000;-74
2023/04/30 04:30:35;;;;;;;13.93;10.10;;;8.00;99.90;;;;;;6242618;23;20142;-73
2023/04/30 04:33:01;;;;;;;15.60;10.93;;;8.10;99.90;;;;;;6242667;22;20051;-74
2023/04/30 04:35:26;;;;;;;18.95;11.25;;;8.10;99.90;;;;;;6241825;22;20355;-74
2023/04/30 04:37:52;;;;;;;13.37;10.13;;;8.10;99.90;;;;;;6242591;23;20008;-74
2023/04/30 04:40:17;;;;;;;18.50;11.98;;;8.10;99.90;;;;;;6242425;23;20001;-73
2023/04/30 04:42:43;;;;;;;14.80;11.07;;;8.10;99.90;;;;;;6242447;23;20444;-74
2023/04/30 04:45:10;;;;;;;15.07;11.50;;;8.10;99.90;;;;;;6241898;23;20008;-73
2023/04/30 04:47:36;;;;;;;14.65;11.18;;;8.10;99.90;;;;;;6242544;22;20003;-74
2023/04/30 04:50:02;;;;;;;16.03;11.17;;;8.10;99.90;;;;;;6242390;22;20004;-73
2023/04/30 04:52:27;;;;;;;15.17;11.97;;;8.10;99.90;;;;;;6241934;23;20083;-74
2023/04/30 04:54:53;;;;;;;17.47;12.70;;;8.10;99.90;;;;;;6242918;23;20345;-73
2023/04/30 04:57:18;;;;;;;15.63;12.20;;;8.10;99.90;;;;;;6242038;23;20509;-73
2023/04/30 04:59:46;;;;;;;17.87;11.67;;;8.20;99.90;;;;;;6242771;23;20048;-73
2023/04/30 05:02:12;;;;;;;17.90;11.73;;;8.20;99.90;;;;;;6242007;22;20000;-73
2023/04/30 05:04:37;;;;;;;15.50;11.13;;;8.20;99.90;;;;;;6242192;23;20007;-73
2023/04/30 05:07:04;;;;;;;12.03;10.67;;;8.20;99.90;;;;;;6242537;23;20008;-73
2023/04/30 05:09:29;;;;;;;21.50;11.70;;;8.20;99.90;;;;;;6240383;23;20014;-74
2023/04/30 05:11:55;;;;;;;15.63;11.77;;;8.20;99.90;;;;;;6242180;23;20004;-74
2023/04/30 05:14:20;;;;;;;16.10;11.27;;;8.20;99.90;;;;;;6241310;23;20040;-73
2023/04/30 05:16:46;;;;;;;18.40;12.70;;;8.30;99.90;;;;;;6242142;23;20003;-74
2023/04/30 05:19:12;;;;;;;14.48;10.90;;;8.30;99.90;;;;;;6241540;22;20000;-74
2023/04/30 05:21:38;;;;;;;17.70;11.43;;;8.40;99.90;;;;;;6242484;23;20330;-74
2023/04/30 05:24:04;;;;;;;14.90;11.77;;;8.40;99.90;;;;;;6242613;22;20000;-74
2023/04/30 05:26:30;;;;;;;17.13;12.57;;;8.40;99.90;;;;;;6241763;22;20353;-74
2023/04/30 05:28:55;;;;;;;15.30;11.40;;;8.40;99.90;;;;;;6242027;23;20418;-73
2023/04/30 05:31:21;;;;;;;17.50;13.17;;;8.50;99.90;;;;;;6241156;23;20000;-74
2023/04/30 05:33:47;;;;;;;14.13;12.25;;;8.50;99.90;;;;;;6240848;22;20019;-73
2023/04/30 05:36:13;;;;;;;17.13;12.93;;;8.60;99.90;;;;;;6241798;22;20031;-73
2023/04/30 05:38:38;;;;;;;15.77;12.17;;;8.70;99.90;;;;;;6242735;23;20040;-74
2023/04/30 05:41:04;;;;;;;16.17;12.60;;;8.70;99.90;;;;;;6240758;23;20000;-73
2023/04/30 05:43:29;;;;;;;13.95;10.35;;;8.70;99.90;;;;;;6241858;23;20004;-73
2023/04/30 05:45:55;;;;;;;13.57;11.53;;;8.80;99.90;;;;;;6242292;23;20004;-74
2023/04/30 05:48:20;;;;;;;14.27;12.17;;;8.80;99.90;;;;;;6241237;23;20023;-74
2023/04/30 05:50:46;;;;;;;16.92;12.35;;;8.90;99.90;;;;;;6242336;23;20011;-74
2023/04/30 05:53:12;;;;;;;15.35;10.55;;;9.00;99.90;;;;;;6241798;23;20035;-74
2023/04/30 05:55:38;;;;;;;14.45;10.48;;;9.10;99.90;;;;;;6243070;23;20000;-74
2023/04/30 05:58:04;;;;;;;13.82;10.73;;;9.20;99.90;;;;;;6244401;22;20003;-74
2023/04/30 06:00:30;;;;;;;14.45;11.27;;;9.20;99.90;;;;;;6243718;23;20004;-74
2023/04/30 06:02:55;;;;;;;16.52;11.80;;;9.30;99.90;;;;;;6243958;22;20071;-74
2023/04/30 06:05:21;;;;;;;14.23;11.52;;;9.30;99.90;;;;;;6243657;23;20389;-74
2023/04/30 06:07:46;;;;;;;15.40;12.02;;;9.40;99.90;;;;;;6244295;23;20000;-73
2023/04/30 06:10:12;;;;;;;13.13;10.75;;;9.50;99.90;;;;;;6244147;23;20000;-73
2023/04/30 06:12:38;;;;;;;17.08;12.55;;;9.50;99.90;;;;;;6244577;23;20081;-74
2023/04/30 06:15:05;;;;;;;12.40;9.95;;;9.60;99.90;;;;;;6245184;22;20007;-73
2023/04/30 06:17:31;;;;;;;17.88;11.63;;;9.70;99.90;;;;;;6249544;22;20007;-74
2023/04/30 06:19:59;;;;;;;12.25;10.73;;;9.70;99.90;;;;;;6246059;23;20323;-74
2023/04/30 06:22:25;;;;;;;17.20;11.25;;;9.80;99.90;;;;;;6243681;22;20003;-73
2023/04/30 06:24:50;;;;;;;12.48;10.75;;;9.90;99.90;;;;;;6244343;22;20004;-74
2023/04/30 06:27:16;;;;;;;11.73;10.48;;;9.90;99.90;;;;;;6243409;23;19996;-74
2023/04/30 06:29:41;;;;;;;16.70;11.38;;;10.00;99.90;;;;;;6244069;23;20000;-74
2023/04/30 06:32:07;;;;;;;11.90;10.30;;;10.00;99.90;;;;;;6243338;23;20008;-74
2023/04/30 06:34:33;;;;;;;16.67;10.00;;;10.10;99.90;;;;;;6243628;22;20063;-74
2023/04/30 06:36:58;;;;;;;15.70;10.25;;;10.10;99.90;;;;;;6242506;23;20004;-74
2023/04/30 06:39:24;;;;;;;13.85;9.73;;;10.20;99.90;;;;;;6241456;23;20000;-74
2023/04/30 06:41:50;;;;;;;11.57;9.05;;;10.20;99.90;;;;;;6243463;23;20050;-74
2023/04/30 06:44:17;;;;;;;11.77;9.52;;;10.30;99.90;;;;;;6242777;22;20000;-74
2023/04/30 06:46:43;;;;;;;11.32;10.07;;;10.30;99.90;;;;;;6241494;23;20031;-74
2023/04/30 06:49:08;;;;;;;14.63;9.57;;;10.40;99.90;;;;;;6242901;23;20361;-74
2023/04/30 06:51:34;;;;;;;10.15;8.52;;;10.40;99.90;;;;;;6243244;23;20111;-75
2023/04/30 06:54:00;;;;;;;13.45;10.05;;;10.50;99.90;;;;;;6243887;23;20062;-74
2023/04/30 06:56:25;;;;;;;13.32;9.75;;;10.50;99.90;;;;;;6243456;22;19996;-75
2023/04/30 06:58:51;;;;;;;11.27;9.63;;;10.60;99.90;;;;;;6243825;23;20000;-74
2023/04/30 07:01:16;;;;;;;10.95;9.57;;;10.60;99.90;;;;;;6242840;23;20026;-74
2023/04/30 07:03:42;;;;;;;13.68;9.70;;;10.70;99.90;;;;;;6243697;23;20010;-73
2023/04/30 07:06:07;;;;;;;11.70;10.32;;;10.80;99.90;;;;;;6243242;23;20026;-73
2023/04/30 07:08:33;;;;;;;15.15;10.40;;;10.80;99.90;;;;;;6241587;23;20004;-74
2023/04/30 07:10:58;;;;;;;11.75;10.13;;;10.90;99.90;;;;;;6243658;23;20079;-73
2023/04/30 07:13:24;;;;;;;11.65;10.15;;;10.90;99.90;;;;;;6242909;23;20066;-73
2023/04/30 07:15:50;;;;;;;15.13;10.73;;;11.00;99.90;;;;;;6243240;23;20050;-74
2023/04/30 07:18:16;;;;;;;11.23;9.88;;;11.00;99.90;;;;;;6242909;22;19996;-74
2023/04/30 07:20:41;;;;;;;12.35;11.05;;;11.10;99.90;;;;;;6243660;23;20353;-74
2023/04/30 07:23:07;;;;;;;15.23;10.55;;;11.20;99.90;;;;;;6243517;23;20001;-73
2023/04/30 07:25:33;;;;;;;13.27;9.23;;;11.20;99.90;;;;;;6243372;23;20057;-73
2023/04/30 07:27:59;;;;;;;12.65;10.07;;;11.30;99.90;;;;;;6243436;23;20079;-73
2023/04/30 07:30:25;;;;;;;12.25;10.07;;;11.30;99.90;;;;;;6242546;22;20013;-73
2023/04/30 07:32:51;;;;;;;13.70;10.25;;;11.40;99.90;;;;;;6243138;23;20024;-73
2023/04/30 07:35:16;;;;;;;13.65;10.25;;;11.50;99.90;;;;;;6242586;23;19996;-73
2023/04/30 07:37:42;;;;;;;12.15;9.18;;;11.70;99.90;;;;;;6241397;23;20041;-73
2023/04/30 07:40:11;;;;;;;10.23;9.23;;;11.70;99.90;;;;;;6243138;22;20007;-78
2023/04/30 07:42:39;;;;;;;12.95;11.48;;;11.80;99.90;;;;;;6243570;22;20000;-79
2023/04/30 07:45:05;;;;;;;11.98;10.48;;;11.90;99.90;;;;;;6243025;22;20002;-79
2023/04/30 07:47:31;;;;;;;11.68;10.40;;;12.00;99.90;;;;;;6242600;22;20075;-79
2023/04/30 07:49:56;;;;;;;13.50;10.07;;;12.10;99.90;;;;;;6242877;23;19996;-78
2023/04/30 07:52:22;;;;;;;11.10;9.15;;;12.20;99.90;;;;;;6242680;23;20000;-78
2023/04/30 07:54:47;;;;;;;11.57;8.13;;;12.30;99.90;;;;;;6243145;23;20004;-81
2023/04/30 07:57:13;;;;;;;12.70;9.63;;;12.40;99.90;;;;;;6242679;23;20053;-82
2023/04/30 07:59:38;;;;;;;10.88;8.65;;;12.40;99.90;;;;;;6242755;23;20004;-80
2023/04/30 08:02:04;;;;;;;14.50;9.73;;;12.50;99.90;;;;;;6243181;23;20008;-80
2023/04/30 08:04:29;;;;;;;13.48;10.00;;;12.60;99.90;;;;;;6242618;23;20007;-80
2023/04/30 08:06:55;;;;;;;11.10;9.93;;;12.70;99.90;;;;;;6243274;22;20004;-81
2023/04/30 08:09:20;;;;;;;11.20;9.15;;;12.80;99.90;;;;;;6242628;23;20623;-81
2023/04/30 08:11:46;;;;;;;10.43;8.38;;;12.80;99.90;;;;;;6243141;23;20004;-81
2023/04/30 08:14:11;;;;;;;11.07;9.65;;;12.90;99.90;;;;;;6241833;23;20012;-80
2023/04/30 08:16:37;;;;;;;10.10;9.13;;;13.10;99.90;;;;;;6242897;23;20338;-81
2023/04/30 08:19:03;;;;;;;9.15;8.25;;;13.20;99.90;;;;;;6242966;23;20414;-81
2023/04/30 08:21:30;;;;;;;13.80;7.80;;;13.20;99.90;;;;;;6242682;22;20005;-81
2023/04/30 08:23:56;;;;;;;9.65;8.65;;;13.30;99.90;;;;;;6243897;22;20004;-80
2023/04/30 08:26:22;;;;;;;12.55;8.80;;;13.40;99.90;;;;;;6246552;22;20359;-80
2023/04/30 08:28:47;;;;;;;11.07;8.82;;;13.50;99.90;;;;;;6262835;22;20000;-80
2023/04/30 08:31:14;;;;;;;10.20;8.43;;;13.50;99.90;;;;;;6244235;22;20050;-80
2023/04/30 08:33:40;;;;;;;9.30;8.32;;;13.50;99.90;;;;;;6243152;23;20465;-79
2023/04/30 08:36:05;;;;;;;11.73;8.88;;;13.60;99.90;;;;;;6255723;22;19996;-79
2023/04/30 08:38:31;;;;;;;10.40;8.60;;;13.60;99.90;;;;;;6262703;23;20004;-80
2023/04/30 08:41:11;;;;;;;10.57;9.13;;;13.60;99.90;;;;;;6245886;23;20329;-80
2023/04/30 08:43:37;;;;;;;14.02;9.07;;;13.70;99.90;;;;;;6244728;22;20004;-80
2023/04/30 08:46:04;;;;;;;8.35;7.55;;;13.70;99.90;;;;;;6244683;22;20422;-80
2023/04/30 08:48:31;;;;;;;13.00;7.93;;;13.70;99.90;;;;;;6242986;22;20000;-80
2023/04/30 08:51:01;;;;;;;9.10;7.88;;;13.70;99.90;;;;;;6243202;22;20000;-80
2023/04/30 08:53:27;;;;;;;10.07;7.53;;;13.80;99.90;;;;;;6243686;22;20015;-80
2023/04/30 08:55:52;;;;;;;11.93;7.55;;;13.80;99.90;;;;;;6244277;22;20000;-80
2023/04/30 08:58:18;;;;;;;7.68;6.97;;;13.80;99.90;;;;;;6243520;23;20325;-80
2023/04/30 09:00:44;;;;;;;10.90;7.05;;;13.90;99.90;;;;;;6241574;23;20341;-80
2023/04/30 09:03:09;;;;;;;10.98;7.50;;;14.00;99.90;;;;;;6243654;23;20007;-80
2023/04/30 09:05:37;;;;;;;8.02;7.32;;;14.10;99.90;;;;;;6240838;23;20011;-80
2023/04/30 09:08:02;;;;;;;7.75;6.95;;;14.10;99.90;;;;;;6243451;22;20000;-79
2023/04/30 09:10:31;;;;;;;12.88;7.03;;;14.10;99.90;;;;;;6243375;23;20004;-79
2023/04/30 09:13:10;;;;;;;9.85;7.90;;;14.20;99.90;;;;;;6242902;22;20027;-79
2023/04/30 09:15:38;;;;;;;8.77;7.70;;;14.20;99.90;;;;;;6243056;22;20079;-78
2023/04/30 09:18:16;;;;;;;8.52;7.60;;;14.30;99.90;;;;;;6243324;22;20430;-80
2023/04/30 09:20:55;;;;;;;7.32;6.63;;;14.40;99.90;;;;;;6243303;22;20003;-80
2023/04/30 09:23:20;;;;;;;10.75;7.13;;;14.50;99.90;;;;;;6241927;22;20008;-79
2023/04/30 09:25:46;;;;;;;11.77;7.10;;;14.60;99.90;;;;;;6243238;23;20079;-78
2023/04/30 09:28:13;;;;;;;10.55;7.15;;;14.70;99.90;;;;;;6242776;23;20004;-79
2023/04/30 09:30:40;;;;;;;10.15;7.40;;;14.80;99.90;;;;;;6242297;22;20078;-78
2023/04/30 09:33:06;;;;;;;11.32;7.25;;;14.80;99.90;;;;;;6241900;22;20426;-78
2023/04/30 09:35:37;;;;;;;9.70;6.85;;;14.80;99.90;;;;;;6242117;22;20373;-78
2023/04/30 09:38:03;;;;;;;10.20;6.70;;;14.90;99.90;;;;;;6242363;22;20000;-78
2023/04/30 09:40:36;;;;;;;12.70;8.32;;;15.10;99.90;;;;;;6241177;23;20004;-78
2023/04/30 09:43:02;;;;;;;9.85;6.68;;;15.10;99.90;;;;;;6240681;23;20521;-78
2023/04/30 09:45:41;;;;;;;8.90;7.75;;;15.10;99.90;;;;;;6241794;23;20004;-78
2023/04/30 09:48:09;;;;;;;8.70;7.38;;;15.20;99.90;;;;;;6242461;22;20030;-79
2023/04/30 09:50:39;;;;;;;9.95;6.95;;;15.20;99.90;;;;;;6240569;23;20001;-78
2023/04/30 09:53:09;;;;;;;8.90;6.90;;;15.30;99.90;;;;;;6242233;22;20079;-78
2023/04/30 09:55:35;;;;;;;9.13;6.88;;;15.40;99.90;;;;;;6241837;22;20000;-76
2023/04/30 09:58:09;;;;;;;6.38;5.53;;;15.40;99.80;;;;;;6242273;22;20003;-75
2023/04/30 10:00:36;;;;;;;6.97;6.28;;;15.40;99.80;;;;;;6239718;23;20011;-74
2023/04/30 10:03:09;;;;;;;6.82;6.10;;;15.50;99.90;;;;;;6242020;22;20087;-76
2023/04/30 10:05:47;;;;;;;9.55;7.13;;;15.60;99.50;;;;;;6240242;23;20004;-75
2023/04/30 10:08:21;;;;;;;6.43;5.30;;;15.60;99.10;;;;;;6241468;22;20233;-73
2023/04/30 10:10:52;;;;;;;6.93;6.28;;;15.60;99.10;;;;;;6241625;22;20000;-76
2023/04/30 10:13:20;;;;;;;8.52;5.93;;;15.50;98.20;;;;;;6241387;22;20008;-74
2023/04/30 10:15:50;;;;;;;4.70;3.88;;;15.60;98.10;;;;;;6242092;22;20090;-74
2023/04/30 10:18:33;;;;;;;8.48;5.45;;;15.60;98.00;;;;;;6241369;22;20000;-75
2023/04/30 10:21:02;;;;;;;7.47;6.72;;;15.70;98.50;;;;;;6240305;23;20004;-75
2023/04/30 10:23:29;;;;;;;7.72;5.88;;;15.80;98.20;;;;;;6240752;22;20004;-74
2023/04/30 10:25:56;;;;;;;8.07;5.60;;;15.90;98.00;;;;;;6242264;22;20004;-77
2023/04/30 10:28:22;;;;;;;5.95;5.35;;;15.90;97.70;;;;;;6241427;22;20011;-76
2023/04/30 10:30:50;;;;;;;7.43;5.90;;;16.00;97.80;;;;;;6241941;22;20000;-75
2023/04/30 10:33:21;;;;;;;8.55;5.40;;;16.10;97.50;;;;;;6241091;22;20437;-80
2023/04/30 10:36:03;;;;;;;6.03;5.32;;;16.20;97.20;;;;;;6241570;23;20023;-78
2023/04/30 10:38:31;;;;;;;6.90;5.60;;;16.20;96.90;;;;;;6239892;22;20430;-76
2023/04/30 10:40:58;;;;;;;6.53;5.82;;;16.20;96.70;;;;;;6240942;23;20492;-77
2023/04/30 10:43:25;;;;;;;6.50;5.90;;;16.20;96.40;;;;;;6243762;22;20004;-77
2023/04/30 10:45:50;;;;;;;7.63;4.30;;;16.30;96.60;;;;;;6244581;22;20004;-77
2023/04/30 10:48:23;;;;;;;7.03;5.22;;;16.30;96.00;;;;;;6243549;23;20020;-77
2023/04/30 10:50:51;;;;;;;6.93;5.68;;;16.30;95.90;;;;;;6244237;22;20073;-77
2023/04/30 10:53:18;;;;;;;7.25;5.82;;;16.30;96.20;;;;;;6244107;22;20004;-75
2023/04/30 10:55:47;;;;;;;6.75;5.00;;;16.30;95.90;;;;;;6246256;22;20047;-76
2023/04/30 10:58:26;;;;;;;5.25;4.75;;;16.30;96.00;;;;;;6245156;22;20000;-76
2023/04/30 11:01:04;;;;;;;5.97;5.47;;;16.30;95.90;;;;;;6243582;22;20000;-76
2023/04/30 11:03:31;;;;;;;6.97;4.97;;;16.40;95.60;;;;;;6243055;22;20000;-77
2023/04/30 11:05:58;;;;;;;6.43;5.25;;;16.40;95.90;;;;;;6242115;23;20083;-77
2023/04/30 11:08:36;;;;;;;6.07;5.25;;;16.40;96.00;;;;;;6242575;22;20000;-77
2023/04/30 11:11:03;;;;;;;5.13;4.25;;;16.50;95.80;;;;;;6243743;22;20007;-77
2023/04/30 11:13:42;;;;;;;6.45;4.78;;;16.50;95.30;;;;;;6242976;22;20086;-77
2023/04/30 11:16:08;;;;;;;4.57;4.18;;;16.50;95.30;;;;;;6243353;22;20012;-75
2023/04/30 11:18:39;;;;;;;6.32;5.65;;;16.50;95.20;;;;;;6243127;22;19992;-79
2023/04/30 11:21:07;;;;;;;4.32;3.92;;;16.50;94.40;;;;;;6243437;22;20092;-79
2023/04/30 11:23:33;;;;;;;6.22;4.90;;;16.50;94.60;;;;;;6242918;22;20027;-80
2023/04/30 11:26:00;;;;;;;6.15;4.75;;;16.50;94.40;;;;;;6241963;23;20426;-79
2023/04/30 11:28:27;;;;;;;5.35;4.07;;;16.50;94.50;;;;;;6243064;22;20004;-80
2023/04/30 11:30:59;;;;;;;6.03;5.15;;;16.50;94.50;;;;;;6243653;22;20004;-79
2023/04/30 11:33:27;;;;;;;7.83;5.13;;;16.50;94.10;;;;;;6242506;22;20031;-79
2023/04/30 11:35:54;;;;;;;6.75;5.03;;;16.50;94.10;;;;;;6242698;22;20023;-80
2023/04/30 11:38:24;;;;;;;6.75;4.70;;;16.50;94.10;;;;;;6243063;22;20000;-81
2023/04/30 11:40:50;;;;;;;5.88;4.60;;;16.50;93.90;;;;;;6243733;22;20083;-80
2023/04/30 11:43:30;;;;;;;7.18;4.68;;;16.50;94.00;;;;;;6242969;22;20039;-80
2023/04/30 11:46:11;;;;;;;5.60;4.65;;;16.50;93.80;;;;;;6243403;22;20004;-81
2023/04/30 11:48:39;;;;;;;6.00;4.93;;;16.50;93.50;;;;;;6243567;22;20038;-80
2023/04/30 11:51:17;;;;;;;5.07;4.47;;;16.50;93.70;;;;;;6242813;22;20008;-80
2023/04/30 11:53:45;;;;;;;6.03;4.20;;;16.50;93.90;;;;;;6242823;22;20438;-80
2023/04/30 11:56:11;;;;;;;5.63;4.45;;;16.50;93.90;;;;;;6242401;22;19996;-80
2023/04/30 11:58:38;;;;;;;6.70;5.00;;;16.60;93.90;;;;;;6243069;23;20000;-80
2023/04/30 12:01:05;;;;;;;5.22;4.15;;;16.70;93.70;;;;;;6243158;22;19996;-80
2023/04/30 12:03:31;;;;;;;7.47;4.35;;;16.70;93.50;;;;;;6242463;22;20012;-82
2023/04/30 12:05:57;;;;;;;6.15;3.85;;;16.80;93.60;;;;;;6240881;23;20437;-76
2023/04/30 12:08:23;;;;;;;4.07;3.60;;;16.80;93.40;;;;;;6242188;23;20006;-76
2023/04/30 12:10:48;;;;;;;4.18;3.25;;;16.90;93.30;;;;;;6243005;22;20007;-76
2023/04/30 12:13:15;;;;;;;6.25;4.05;;;16.90;93.00;;;;;;6242203;23;20083;-76
2023/04/30 12:15:41;;;;;;;4.18;3.50;;;16.90;92.90;;;;;;6243197;22;20465;-77
2023/04/30 12:18:12;;;;;;;3.92;3.50;;;17.00;92.90;;;;;;6241005;23;20028;-77
2023/04/30 12:20:39;;;;;;;3.60;3.30;;;17.00;92.70;;;;;;6242398;22;20426;-77
2023/04/30 12:23:05;;;;;;;5.00;4.03;;;17.00;92.60;;;;;;6242246;22;20004;-76
2023/04/30 12:25:39;;;;;;;4.57;3.13;;;17.10;92.80;;;;;;6242345;22;20000;-75
2023/04/30 12:28:05;;;;;;;3.88;3.45;;;17.20;92.90;;;;;;6242272;22;19996;-75
2023/04/30 12:30:30;;;;;;;4.43;2.85;;;17.30;92.80;;;;;;6241965;23;20075;-75
2023/04/30 12:32:57;;;;;;;3.70;2.72;;;17.30;92.70;;;;;;6242471;23;20016;-76
2023/04/30 12:35:23;;;;;;;5.10;2.88;;;17.40;92.30;;;;;;6241569;22;20001;-76
2023/04/30 12:37:51;;;;;;;3.90;2.58;;;17.40;92.10;;;;;;6243015;22;20078;-77
2023/04/30 12:40:25;;;;;;;2.10;1.88;;;17.50;92.20;;;;;;6242223;22;20004;-76
2023/04/30 12:42:58;;;;;;;2.63;1.73;;;17.50;91.90;;;;;;6242862;22;20007;-76
2023/04/30 12:45:47;;;;;;;2.90;1.58;;;17.60;91.40;;;;;;6242211;22;20381;-76